createdAt,value
2019-04-16T00:01:27.631Z,10.93
2019-04-16T00:06:48.749Z,8.73
2019-04-16T00:12:10.109Z,9.13
2019-04-16T00:17:15.845Z,10.30
2019-04-16T00:27:34.863Z,8.67
2019-04-16T00:32:41.031Z,9.60
2019-04-16T00:37:43.478Z,9.80
2019-04-16T00:42:46.893Z,8.63
2019-04-16T00:47:51.383Z,9.57
2019-04-16T00:52:55.671Z,9.40
2019-04-16T00:57:59.409Z,9.07
2019-04-16T01:03:02.818Z,9.33
2019-04-16T01:08:06.234Z,10.10
2019-04-16T01:13:09.649Z,9.80
2019-04-16T01:18:13.147Z,10.37
2019-04-16T01:23:17.891Z,8.93
2019-04-16T01:28:31.935Z,9.40
2019-04-16T01:33:54.233Z,9.23
2019-04-16T01:39:15.197Z,9.13
2019-04-16T01:44:07.053Z,8.93
2019-04-16T01:49:11.494Z,9.57
2019-04-16T01:54:15.067Z,9.50
2019-04-16T01:59:18.480Z,8.83
2019-04-16T02:04:21.908Z,8.80
2019-04-16T02:09:25.335Z,8.40
2019-04-16T02:14:28.831Z,9.30
2019-04-16T02:19:32.841Z,10.03
2019-04-16T02:24:36.950Z,9.67
2019-04-16T02:29:40.362Z,9.17
2019-04-16T02:34:43.776Z,8.33
2019-04-16T02:39:49.022Z,8.67
2019-04-16T02:44:52.402Z,9.37
2019-04-16T02:49:57.732Z,9.13
2019-04-16T02:55:19.721Z,8.50
2019-04-16T03:00:56.300Z,7.87
2019-04-16T03:06:01.052Z,8.97
2019-04-16T03:11:05.212Z,9.17
2019-04-16T03:16:10.266Z,8.63
2019-04-16T03:21:13.753Z,7.90
2019-04-16T03:26:18.215Z,7.43
2019-04-16T03:31:23.372Z,8.10
2019-04-16T03:36:29.471Z,8.07
2019-04-16T03:41:32.063Z,8.37
2019-04-16T03:46:35.518Z,6.60
2019-04-16T03:51:38.942Z,10.07
2019-04-16T03:56:42.365Z,8.70
2019-04-16T04:01:46.749Z,7.37
2019-04-16T04:06:50.417Z,8.50
2019-04-16T04:11:53.864Z,8.10
2019-04-16T04:16:57.464Z,9.43
2019-04-16T04:22:01.067Z,7.83
2019-04-16T04:27:04.488Z,9.47
2019-04-16T04:32:07.964Z,7.83
2019-04-16T04:37:11.509Z,9.47
2019-04-16T04:42:18.530Z,9.47
2019-04-16T04:47:20.367Z,10.20
2019-04-16T04:52:27.226Z,10.50
2019-04-16T04:57:31.193Z,9.60
2019-04-16T05:02:34.671Z,9.33
2019-04-16T05:07:38.849Z,10.33
2019-04-16T05:12:42.189Z,9.40
2019-04-16T05:17:45.606Z,8.47
2019-04-16T05:22:50.547Z,8.57
2019-04-16T05:27:54.183Z,9.43
2019-04-16T05:32:57.630Z,10.13
2019-04-16T05:38:01.040Z,10.53
2019-04-16T05:43:04.447Z,10.07
2019-04-16T05:48:07.875Z,8.73
2019-04-16T05:53:13.174Z,9.63
2019-04-16T05:58:16.451Z,9.93
2019-04-16T06:03:21.874Z,10.93
2019-04-16T06:08:25.087Z,10.17
2019-04-16T06:13:30.159Z,10.00
2019-04-16T06:18:38.277Z,11.40
2019-04-16T06:23:43.297Z,9.87
2019-04-16T06:28:55.143Z,10.67
2019-04-16T06:39:20.986Z,10.67
2019-04-16T06:44:29.838Z,10.13
2019-04-16T06:49:41.565Z,10.77
2019-04-16T06:54:55.754Z,9.27
2019-04-16T07:00:02.461Z,9.37
2019-04-16T07:05:20.565Z,8.83
2019-04-16T07:10:28.627Z,9.00
2019-04-16T07:15:30.778Z,9.13
2019-04-16T07:20:34.218Z,8.37
2019-04-16T07:25:41.736Z,7.63
2019-04-16T07:30:44.449Z,8.83
2019-04-16T07:35:52.896Z,8.13
2019-04-16T07:41:16.821Z,9.90
2019-04-16T07:46:36.790Z,8.77
2019-04-16T07:51:58.139Z,8.73
2019-04-16T07:57:01.671Z,7.50
2019-04-16T08:02:05.152Z,8.40
2019-04-16T08:07:08.566Z,8.77
2019-04-16T08:12:28.965Z,9.53
2019-04-16T08:17:17.520Z,9.40
2019-04-16T08:22:20.963Z,10.27
2019-04-16T08:27:24.779Z,9.07
2019-04-16T08:32:29.063Z,9.90
2019-04-16T08:37:32.498Z,9.27
2019-04-16T08:42:44.477Z,9.83
2019-04-16T08:47:44.535Z,9.33
2019-04-16T08:52:46.696Z,9.47
2019-04-16T08:57:50.479Z,9.57
2019-04-16T09:02:57.579Z,10.37
2019-04-16T09:08:12.904Z,9.87
2019-04-16T09:13:34.950Z,10.07
2019-04-16T09:18:45.847Z,9.57
2019-04-16T09:24:09.416Z,10.73
2019-04-16T09:29:26.327Z,10.00
2019-04-16T09:34:47.751Z,11.90
2019-04-16T09:45:13.881Z,10.83
2019-04-16T09:50:17.310Z,10.10
2019-04-16T09:55:21.553Z,11.90
2019-04-16T10:00:26.571Z,10.73
2019-04-16T10:05:30.254Z,10.80
2019-04-16T10:10:33.652Z,10.97
2019-04-16T10:15:37.083Z,11.77
2019-04-16T10:20:40.583Z,11.03
2019-04-16T10:25:44.055Z,10.77
2019-04-16T10:30:49.129Z,10.90
2019-04-16T10:35:52.562Z,12.03
2019-04-16T10:46:20.270Z,11.73
2019-04-16T10:51:25.374Z,11.57
2019-04-16T10:56:48.224Z,11.50
2019-04-16T11:01:53.390Z,11.33
2019-04-16T11:06:58.489Z,12.00
2019-04-16T11:12:04.814Z,12.93
2019-04-16T11:17:07.702Z,12.17
2019-04-16T11:22:11.333Z,11.77
2019-04-16T11:27:14.788Z,11.43
2019-04-16T11:32:19.847Z,12.73
2019-04-16T11:37:23.305Z,11.53
2019-04-16T11:42:26.806Z,12.80
2019-04-16T11:47:33.815Z,12.93
2019-04-16T11:52:35.363Z,11.63
2019-04-16T11:57:38.843Z,14.13
2019-04-16T12:02:52.667Z,13.00
2019-04-16T12:08:16.129Z,12.53
2019-04-16T12:13:21.150Z,13.63
2019-04-16T12:18:31.835Z,14.07
2019-04-16T12:23:47.763Z,12.77
2019-04-16T12:28:52.879Z,13.13
2019-04-16T12:34:16.132Z,12.63
2019-04-16T12:39:37.610Z,13.60
2019-04-16T12:44:45.588Z,13.50
2019-04-16T12:50:06.381Z,13.23
2019-04-16T12:55:31.449Z,13.10
2019-04-16T13:00:34.802Z,13.13
2019-04-16T13:05:56.009Z,14.80
2019-04-16T13:11:01.074Z,16.30
2019-04-16T13:16:06.255Z,14.90
2019-04-16T13:21:20.295Z,15.67
2019-04-16T13:26:25.359Z,14.17
2019-04-16T13:31:28.800Z,16.50
2019-04-16T13:36:32.233Z,15.00
2019-04-16T13:41:35.652Z,15.00
2019-04-16T13:46:39.093Z,16.70
2019-04-16T13:51:44.985Z,15.03
2019-04-16T13:56:51.518Z,16.87
2019-04-16T14:01:58.999Z,16.13
2019-04-16T14:07:01.485Z,15.50
2019-04-16T14:12:05.291Z,17.47
2019-04-16T14:17:10.907Z,17.63
2019-04-16T14:22:13.978Z,15.93
2019-04-16T14:27:17.402Z,16.33
2019-04-16T14:32:20.826Z,16.53
2019-04-16T14:37:24.330Z,16.50
2019-04-16T14:42:27.737Z,18.00
2019-04-16T14:47:32.975Z,15.90
2019-04-16T14:52:36.449Z,15.67
2019-04-16T14:57:57.851Z,17.03
2019-04-16T15:03:06.027Z,15.07
2019-04-16T15:08:11.088Z,15.97
2019-04-16T15:13:16.178Z,14.90
2019-04-16T15:18:21.275Z,16.73
2019-04-16T15:23:26.354Z,16.60
2019-04-16T15:28:31.429Z,14.90
2019-04-16T15:33:42.522Z,15.77
2019-04-16T15:44:22.328Z,16.23
2019-04-16T15:49:36.402Z,15.30
2019-04-16T15:54:41.495Z,15.93
2019-04-16T15:59:52.121Z,15.27
2019-04-16T16:04:59.905Z,15.30
2019-04-16T16:10:05.372Z,16.37
2019-04-16T16:15:10.068Z,16.77
2019-04-16T16:20:14.325Z,15.13
2019-04-16T16:25:17.755Z,16.27
2019-04-16T16:30:21.196Z,15.93
2019-04-16T16:35:24.683Z,15.03
2019-04-16T16:40:28.183Z,16.77
2019-04-16T16:45:45.271Z,15.27
2019-04-16T16:50:51.623Z,14.60
2019-04-16T16:55:55.341Z,14.67
2019-04-16T17:01:01.677Z,14.13
2019-04-16T17:06:06.509Z,14.63
2019-04-16T17:11:16.744Z,13.43
2019-04-16T17:16:15.118Z,14.50
2019-04-16T17:21:18.570Z,14.70
2019-04-16T17:26:21.989Z,14.07
2019-04-16T17:31:25.419Z,13.43
2019-04-16T17:36:28.832Z,13.63
2019-04-16T17:41:33.926Z,15.13
2019-04-16T17:46:45.167Z,14.37
2019-04-16T17:51:50.231Z,12.43
2019-04-16T17:57:11.485Z,14.20
2019-04-16T18:02:33.009Z,13.87
2019-04-16T18:07:40.954Z,13.97
2019-04-16T18:12:57.674Z,14.07
2019-04-16T18:18:15.705Z,13.20
2019-04-16T18:23:36.291Z,14.67
2019-04-16T18:28:41.408Z,14.93
2019-04-16T18:33:46.481Z,14.97
2019-04-16T18:38:51.550Z,15.03
2019-04-16T18:43:59.614Z,16.37
2019-04-16T18:49:04.694Z,14.37
2019-04-16T18:54:08.108Z,14.47
2019-04-16T18:59:11.519Z,13.43
2019-04-16T19:04:15.259Z,14.77
2019-04-16T19:09:20.858Z,15.93
2019-04-16T19:14:23.952Z,16.10
2019-04-16T19:19:27.385Z,16.73
2019-04-16T19:24:30.821Z,15.10
2019-04-16T19:29:34.239Z,17.07
2019-04-16T19:34:40.942Z,19.27
2019-04-16T19:39:43.816Z,15.83
2019-04-16T19:44:47.989Z,16.10
2019-04-16T19:49:51.490Z,16.63
2019-04-16T19:54:55.050Z,16.53
2019-04-16T19:59:58.417Z,17.13
2019-04-16T20:05:01.856Z,15.80
2019-04-16T20:10:06.435Z,16.73
2019-04-16T20:15:10.663Z,16.27
2019-04-16T20:20:14.464Z,18.10
2019-04-16T20:25:18.019Z,24.60
2019-04-16T20:30:24.265Z,16.70
2019-04-16T20:35:26.620Z,17.23
2019-04-16T20:40:30.047Z,16.63
2019-04-16T20:45:33.482Z,17.10
2019-04-16T20:50:37.172Z,16.63
2019-04-16T20:55:40.603Z,18.00
2019-04-16T21:00:45.972Z,17.90
2019-04-16T21:05:58.028Z,17.90
2019-04-16T21:10:58.493Z,16.40
2019-04-16T21:16:01.667Z,17.80
2019-04-16T21:21:04.853Z,16.60
2019-04-16T21:26:08.883Z,16.00
2019-04-16T21:31:13.889Z,17.97
2019-04-16T21:36:37.193Z,16.57
2019-04-16T21:41:40.325Z,16.00
2019-04-16T21:46:44.163Z,13.67
2019-04-16T21:52:05.578Z,14.53
2019-04-16T21:57:13.141Z,17.07
2019-04-16T22:02:16.123Z,17.50
2019-04-16T22:07:24.206Z,17.20
2019-04-16T22:12:24.769Z,14.47
2019-04-16T22:17:28.223Z,17.57
2019-04-16T22:22:31.734Z,17.00
2019-04-16T22:27:36.742Z,14.13
2019-04-16T22:32:40.423Z,14.63
2019-04-16T22:37:43.855Z,17.73
2019-04-16T22:42:48.921Z,17.70
2019-04-16T22:47:55.085Z,15.03
2019-04-16T22:52:58.513Z,15.37
2019-04-16T22:58:03.546Z,17.53
2019-04-16T23:03:07.191Z,17.27
2019-04-16T23:08:12.891Z,15.83
2019-04-16T23:13:15.782Z,15.47
2019-04-16T23:18:19.198Z,15.77
2019-04-16T23:23:22.616Z,15.97
2019-04-16T23:28:26.058Z,15.73
2019-04-16T23:33:32.547Z,16.60
2019-04-16T23:38:34.638Z,15.03
2019-04-16T23:43:39.706Z,16.23
2019-04-16T23:48:48.584Z,19.37
2019-04-16T23:53:59.490Z,17.90
2019-04-16T23:59:10.763Z,15.23
